Time;durP1;ratioP1;P1;durP2;ratioP2;P2;SDS_P1;SDS_P2;PMS_P1;PMS_P2;Temp;Humidity;BMP_temperature;BMP_pressure;BME280_temperature;BME280_humidity;BME280_pressure;Samples;Min_cycle;Max_cycle;Signal;HPM_P1;HPM_P2
2022/05/10 00:02:15;;;;;;;12.25;5.68;;;12.80;99.40;;;;;;5095820;28;20491;-79
2022/05/10 00:04:41;;;;;;;12.20;5.90;;;12.70;99.40;;;;;;5062115;28;20158;-80
2022/05/10 00:07:07;;;;;;;13.85;5.82;;;12.70;99.50;;;;;;5079240;28;20491;-80
2022/05/10 00:09:33;;;;;;;12.85;5.78;;;12.70;99.50;;;;;;5062259;28;20047;-80
2022/05/10 00:11:58;;;;;;;10.50;5.57;;;12.60;99.50;;;;;;5095887;28;20403;-79
2022/05/10 00:14:27;;;;;;;12.90;5.53;;;12.60;99.50;;;;;;5095662;28;20047;-79
2022/05/10 00:16:52;;;;;;;10.20;5.25;;;12.60;99.60;;;;;;5062069;28;20044;-79
2022/05/10 00:19:19;;;;;;;8.43;5.07;;;12.50;99.60;;;;;;5095330;28;20053;-79
2022/05/10 00:21:45;;;;;;;39.08;5.95;;;12.50;99.70;;;;;;5078419;28;20058;-79
2022/05/10 00:24:10;;;;;;;18.20;5.40;;;12.50;99.70;;;;;;5062291;28;20032;-80
2022/05/10 00:26:36;;;;;;;14.90;5.40;;;12.50;99.90;;;;;;5095238;28;20103;-79
2022/05/10 00:29:02;;;;;;;9.88;5.22;;;12.50;99.90;;;;;;5078413;28;20043;-79
2022/05/10 00:31:28;;;;;;;9.60;5.25;;;12.50;99.90;;;;;;5078581;28;20059;-79
2022/05/10 00:33:53;;;;;;;9.75;5.55;;;12.50;99.90;;;;;;5061830;28;20043;-79
2022/05/10 00:36:21;;;;;;;15.35;5.75;;;12.50;99.90;;;;;;5062022;28;20151;-80
2022/05/10 00:38:47;;;;;;;12.25;5.00;;;12.50;99.90;;;;;;5061752;28;20078;-79
2022/05/10 00:41:48;;;;;;;14.80;5.00;;;12.50;99.90;;;;;;5094188;28;20079;-79
2022/05/10 00:44:22;;;;;;;10.98;5.03;;;12.50;99.90;;;;;;5097814;28;20040;-79
2022/05/10 00:47:10;;;;;;;8.45;5.00;;;12.40;99.90;;;;;;5078057;28;20051;-79
2022/05/10 00:50:01;;;;;;;11.18;4.60;;;12.40;99.90;;;;;;5079075;28;20051;-79
2022/05/10 00:52:42;;;;;;;10.55;5.10;;;12.40;99.90;;;;;;5078583;28;20122;-79
2022/05/10 00:55:12;;;;;;;11.88;5.18;;;12.40;99.90;;;;;;5079442;28;20054;-79
2022/05/10 00:57:43;;;;;;;8.65;4.95;;;12.30;99.90;;;;;;5062264;28;20052;-79
2022/05/10 01:00:20;;;;;;;8.63;5.07;;;12.30;99.90;;;;;;5078612;28;20055;-79
2022/05/10 01:02:46;;;;;;;11.27;4.75;;;12.30;99.90;;;;;;5061460;28;20395;-79
2022/05/10 01:05:19;;;;;;;10.57;4.90;;;12.20;99.90;;;;;;5078319;28;20043;-79
2022/05/10 01:07:52;;;;;;;11.55;4.78;;;12.20;99.90;;;;;;5094695;28;20048;-79
2022/05/10 01:10:40;;;;;;;11.95;4.93;;;12.20;99.90;;;;;;5112786;28;20047;-79
2022/05/10 01:13:27;;;;;;;8.57;4.65;;;12.20;99.90;;;;;;5097163;28;20487;-80
2022/05/10 01:16:13;;;;;;;9.90;4.70;;;12.20;99.90;;;;;;5062260;28;20050;-79
2022/05/10 01:18:39;;;;;;;6.20;4.30;;;12.20;99.90;;;;;;5078373;28;20051;-79
2022/05/10 01:21:39;;;;;;;8.98;4.63;;;12.10;99.90;;;;;;5061126;28;20043;-79
2022/05/10 01:24:41;;;;;;;9.68;4.20;;;12.20;99.90;;;;;;5063064;28;20396;-80
2022/05/10 01:27:35;;;;;;;8.40;4.50;;;12.10;99.90;;;;;;5094573;28;20048;-79
2022/05/10 01:30:08;;;;;;;8.07;4.57;;;12.10;99.90;;;;;;5111541;28;20047;-79
2022/05/10 01:35:44;;;;;;;8.73;4.30;;;12.10;99.90;;;;;;5081931;28;20055;-79
2022/05/10 01:38:39;;;;;;;10.38;4.22;;;12.00;99.90;;;;;;5077976;28;20403;-79
2022/05/10 01:41:33;;;;;;;9.20;4.43;;;12.10;99.90;;;;;;5060837;28;20098;-80
2022/05/10 01:44:24;;;;;;;9.45;4.20;;;12.10;99.90;;;;;;5077737;28;20044;-79
2022/05/10 01:46:51;;;;;;;7.50;4.60;;;12.10;99.90;;;;;;5111036;28;20123;-79
2022/05/10 01:49:30;;;;;;;8.90;4.43;;;12.10;99.90;;;;;;5061321;28;20096;-79
2022/05/10 01:52:04;;;;;;;11.15;4.47;;;12.10;99.90;;;;;;5079322;28;20047;-79
2022/05/10 01:54:47;;;;;;;10.57;4.53;;;12.10;99.90;;;;;;5061630;28;20127;-79
2022/05/10 01:57:14;;;;;;;9.07;4.68;;;12.20;99.90;;;;;;5112645;28;20087;-79
2022/05/10 01:59:42;;;;;;;7.57;4.40;;;12.10;99.90;;;;;;5061458;28;20135;-79
2022/05/10 02:02:08;;;;;;;9.85;4.80;;;12.20;99.90;;;;;;5060797;28;20394;-80
2022/05/10 02:04:34;;;;;;;8.05;4.32;;;12.20;99.90;;;;;;5060977;28;20118;-79
2022/05/10 02:07:06;;;;;;;15.20;5.28;;;12.20;99.90;;;;;;5060883;28;20056;-79
2022/05/10 02:09:34;;;;;;;7.47;4.68;;;12.20;99.90;;;;;;5061790;28;20046;-79
2022/05/10 02:12:01;;;;;;;11.57;5.22;;;12.20;99.90;;;;;;5111287;28;20463;-80
2022/05/10 02:15:03;;;;;;;12.38;4.90;;;12.20;99.90;;;;;;5079647;28;20112;-79
2022/05/10 02:17:44;;;;;;;12.20;5.20;;;12.20;99.90;;;;;;5085166;28;20167;-79
2022/05/10 02:20:30;;;;;;;12.45;5.90;;;12.30;99.90;;;;;;5081297;28;20127;-79
2022/05/10 02:23:02;;;;;;;11.40;5.20;;;12.40;99.90;;;;;;5080609;28;20054;-80
2022/05/10 02:25:33;;;;;;;8.98;5.93;;;12.40;99.90;;;;;;5116156;28;20143;-79
2022/05/10 02:28:11;;;;;;;10.75;5.57;;;12.50;99.50;;;;;;5080851;28;20103;-79
2022/05/10 02:30:36;;;;;;;13.90;5.75;;;12.60;99.10;;;;;;5081609;28;20083;-80
2022/05/10 02:33:07;;;;;;;10.50;5.60;;;12.60;98.70;;;;;;5080896;28;20143;-80
2022/05/10 02:35:55;;;;;;;13.18;5.90;;;12.60;98.60;;;;;;5081079;28;20043;-78
2022/05/10 02:38:34;;;;;;;14.68;6.13;;;12.70;98.50;;;;;;5065638;28;20502;-78
2022/05/10 02:41:02;;;;;;;11.88;6.22;;;12.70;98.40;;;;;;5097223;28;20051;-79
2022/05/10 02:43:48;;;;;;;12.95;5.93;;;12.70;98.20;;;;;;5064606;28;20112;-79
2022/05/10 02:46:14;;;;;;;13.40;6.35;;;12.80;98.00;;;;;;5080908;28;20452;-79
2022/05/10 02:48:40;;;;;;;8.75;5.50;;;12.70;98.20;;;;;;5080186;28;20051;-79
2022/05/10 02:51:05;;;;;;;12.85;6.10;;;12.80;98.20;;;;;;5097220;28;20471;-79
2022/05/10 02:53:31;;;;;;;14.32;6.20;;;12.80;97.90;;;;;;5114297;28;20040;-79
2022/05/10 02:56:01;;;;;;;12.38;6.00;;;12.80;98.00;;;;;;5114211;28;20044;-79
2022/05/10 02:58:29;;;;;;;11.43;5.65;;;12.80;98.10;;;;;;5097518;28;20058;-79
2022/05/10 03:01:06;;;;;;;9.88;6.40;;;12.80;98.20;;;;;;5114191;28;20058;-78
2022/05/10 03:03:32;;;;;;;11.75;6.22;;;12.80;98.40;;;;;;5098431;27;20052;-80
2022/05/10 03:05:58;;;;;;;11.30;6.25;;;12.80;98.40;;;;;;5099616;27;20368;-79
2022/05/10 03:08:23;;;;;;;8.35;5.22;;;12.80;98.50;;;;;;5117708;27;20055;-79
2022/05/10 03:10:49;;;;;;;11.18;5.30;;;12.80;98.80;;;;;;5117696;27;20040;-79
2022/05/10 03:13:15;;;;;;;12.15;5.72;;;12.80;99.30;;;;;;5116986;27;20049;-79
2022/05/10 03:15:40;;;;;;;10.40;5.60;;;12.80;99.50;;;;;;5100531;27;20096;-78
2022/05/10 03:18:06;;;;;;;9.68;4.90;;;12.80;99.60;;;;;;5116982;27;20357;-79
2022/05/10 03:20:32;;;;;;;10.40;5.43;;;12.80;99.60;;;;;;5100070;27;20050;-79
2022/05/10 03:22:58;;;;;;;14.30;5.57;;;12.80;99.80;;;;;;5100185;27;20126;-78
2022/05/10 03:25:24;;;;;;;13.55;5.70;;;12.70;99.90;;;;;;5117279;27;20376;-79
2022/05/10 03:27:50;;;;;;;11.48;5.50;;;12.80;99.90;;;;;;5100230;27;20051;-79
2022/05/10 03:30:16;;;;;;;12.05;5.88;;;12.80;99.90;;;;;;5099682;27;20047;-79
2022/05/10 03:32:42;;;;;;;10.20;5.50;;;12.70;99.90;;;;;;5096319;28;20510;-79
2022/05/10 03:35:08;;;;;;;14.73;5.57;;;12.70;99.90;;;;;;5113216;28;20055;-79
2022/05/10 03:37:33;;;;;;;12.90;5.55;;;12.70;99.90;;;;;;5114602;28;20047;-79
2022/05/10 03:39:59;;;;;;;9.98;5.43;;;12.60;99.90;;;;;;5096747;28;20392;-79
2022/05/10 03:42:25;;;;;;;11.00;5.95;;;12.70;99.90;;;;;;5079216;28;20043;-79
2022/05/10 03:44:53;;;;;;;12.80;6.30;;;12.60;99.90;;;;;;5079644;28;20043;-78
2022/05/10 03:47:21;;;;;;;9.48;5.95;;;12.60;99.90;;;;;;5096497;28;20055;-78
2022/05/10 03:49:49;;;;;;;10.68;6.00;;;12.60;99.90;;;;;;5079848;28;20047;-78
2022/05/10 03:52:15;;;;;;;18.08;6.30;;;12.60;99.90;;;;;;5112684;28;20047;-78
2022/05/10 03:54:41;;;;;;;10.02;5.95;;;12.60;99.90;;;;;;5113033;28;20452;-78
2022/05/10 03:57:07;;;;;;;7.45;5.82;;;12.60;99.90;;;;;;5113760;28;20046;-79
2022/05/10 03:59:32;;;;;;;9.70;5.72;;;12.60;99.90;;;;;;5079396;28;20126;-78
2022/05/10 04:01:58;;;;;;;10.90;6.55;;;12.60;99.90;;;;;;5112912;28;20432;-78
2022/05/10 04:04:23;;;;;;;10.05;5.55;;;12.60;99.90;;;;;;5095673;28;20737;-78
2022/05/10 04:06:49;;;;;;;9.10;5.95;;;12.60;99.90;;;;;;5113130;28;20044;-78
2022/05/10 04:09:15;;;;;;;12.45;6.28;;;12.60;99.90;;;;;;5095527;28;20042;-78
2022/05/10 04:11:41;;;;;;;12.02;5.78;;;12.60;99.90;;;;;;5079334;28;20116;-77
2022/05/10 04:14:07;;;;;;;14.35;6.18;;;12.60;99.90;;;;;;5112117;28;20134;-78
2022/05/10 04:16:33;;;;;;;10.13;6.20;;;12.60;99.90;;;;;;5078935;28;20134;-80
2022/05/10 04:18:59;;;;;;;11.90;7.03;;;12.60;99.90;;;;;;5095815;28;20084;-78
2022/05/10 04:21:24;;;;;;;9.60;6.50;;;12.70;99.90;;;;;;5095236;28;20051;-78
2022/05/10 04:23:50;;;;;;;11.75;7.10;;;12.60;99.90;;;;;;5095735;28;20043;-79
2022/05/10 04:26:16;;;;;;;14.43;7.95;;;12.70;99.90;;;;;;5113201;28;20093;-78
2022/05/10 04:28:42;;;;;;;11.50;6.68;;;12.70;99.90;;;;;;5112500;28;20044;-78
2022/05/10 04:31:08;;;;;;;12.18;7.00;;;12.70;99.90;;;;;;5095307;28;20462;-78
2022/05/10 04:33:34;;;;;;;10.43;7.22;;;12.80;99.90;;;;;;5078894;28;20415;-79
2022/05/10 04:36:00;;;;;;;12.48;7.43;;;12.80;99.90;;;;;;5078513;28;20134;-79
2022/05/10 04:38:25;;;;;;;12.00;7.43;;;12.80;99.90;;;;;;5094582;28;20373;-78
2022/05/10 04:43:36;;;;;;;16.30;7.68;;;12.80;99.90;;;;;;5098112;28;20059;-78
2022/05/10 04:46:01;;;;;;;14.93;8.77;;;12.90;99.90;;;;;;5095331;28;20051;-80
2022/05/10 04:48:27;;;;;;;13.60;8.57;;;12.90;99.90;;;;;;5111618;28;20154;-77
2022/05/10 04:50:53;;;;;;;15.05;8.00;;;12.90;99.90;;;;;;5095188;28;20054;-77
2022/05/10 04:53:19;;;;;;;13.20;8.93;;;13.00;99.90;;;;;;5112446;28;20130;-77
2022/05/10 04:55:45;;;;;;;14.57;8.68;;;13.00;99.90;;;;;;5078222;28;20058;-75
2022/05/10 04:58:13;;;;;;;13.77;8.65;;;13.00;99.90;;;;;;5112751;28;20055;-79
2022/05/10 05:00:39;;;;;;;12.32;8.13;;;13.10;99.90;;;;;;5078342;28;20199;-78
2022/05/10 05:03:04;;;;;;;13.60;8.50;;;13.20;99.90;;;;;;5111610;28;20528;-79
2022/05/10 05:05:30;;;;;;;12.00;8.65;;;13.20;99.90;;;;;;5092666;28;20388;-79
2022/05/10 05:07:56;;;;;;;13.07;8.35;;;13.30;99.90;;;;;;5091403;28;20036;-79
2022/05/10 05:10:21;;;;;;;19.75;9.60;;;13.30;99.70;;;;;;5059042;28;20089;-79
2022/05/10 05:12:47;;;;;;;14.43;8.73;;;13.40;99.30;;;;;;5091335;28;20052;-79
2022/05/10 05:15:13;;;;;;;13.15;8.55;;;13.40;99.10;;;;;;5091533;28;20052;-79
2022/05/10 05:17:38;;;;;;;14.32;8.68;;;13.50;98.70;;;;;;5073836;28;20046;-79
2022/05/10 05:20:05;;;;;;;15.98;8.88;;;13.50;98.10;;;;;;5091459;28;20047;-79
2022/05/10 05:22:30;;;;;;;15.68;8.98;;;13.60;98.00;;;;;;5089189;28;20044;-79
2022/05/10 05:24:56;;;;;;;16.92;9.20;;;13.70;97.60;;;;;;5074502;28;20048;-79
2022/05/10 05:27:22;;;;;;;19.88;9.20;;;13.80;97.50;;;;;;5057225;28;20048;-79
2022/05/10 05:29:47;;;;;;;12.18;8.57;;;13.80;97.20;;;;;;5091233;28;20040;-79
2022/05/10 05:32:13;;;;;;;13.35;8.95;;;13.90;96.80;;;;;;5090861;28;20492;-80
2022/05/10 05:34:39;;;;;;;13.77;8.63;;;14.00;96.30;;;;;;5040711;28;20063;-79
2022/05/10 05:39:49;;;;;;;10.77;8.65;;;14.10;96.10;;;;;;5093967;28;20519;-79
2022/05/10 05:42:14;;;;;;;14.80;8.80;;;14.10;96.00;;;;;;5107903;28;20075;-79
2022/05/10 05:44:40;;;;;;;14.45;8.70;;;14.20;95.60;;;;;;5073747;28;20076;-79
2022/05/10 05:47:06;;;;;;;12.13;8.40;;;14.20;95.40;;;;;;5074499;28;20043;-80
2022/05/10 05:49:31;;;;;;;17.83;8.25;;;14.30;95.30;;;;;;5075977;28;20138;-80
2022/05/10 05:51:58;;;;;;;11.23;8.52;;;14.30;95.20;;;;;;5061472;28;20136;-79
2022/05/10 05:54:24;;;;;;;10.75;7.97;;;14.40;95.40;;;;;;5061335;28;20051;-80
2022/05/10 05:56:49;;;;;;;11.90;7.95;;;14.40;95.30;;;;;;5095147;28;20056;-80
2022/05/10 05:59:15;;;;;;;13.93;8.63;;;14.50;95.30;;;;;;5112181;28;20487;-79
2022/05/10 06:01:41;;;;;;;17.75;8.75;;;14.60;94.90;;;;;;5061044;28;20351;-79
2022/05/10 06:04:06;;;;;;;15.38;8.60;;;14.60;94.60;;;;;;5078240;28;20059;-80
2022/05/10 06:06:32;;;;;;;15.98;7.97;;;14.70;94.70;;;;;;5077726;28;20070;-80
2022/05/10 06:08:57;;;;;;;12.02;8.23;;;14.80;94.50;;;;;;5061623;28;20400;-79
2022/05/10 06:11:23;;;;;;;11.23;8.30;;;14.90;94.30;;;;;;5077710;28;20403;-83
2022/05/10 06:13:49;;;;;;;16.65;8.82;;;14.90;94.40;;;;;;5111995;28;20443;-79
2022/05/10 06:16:14;;;;;;;10.38;8.00;;;15.00;94.40;;;;;;5094586;28;20127;-79
2022/05/10 06:18:41;;;;;;;11.32;7.97;;;15.10;94.50;;;;;;5077484;28;20040;-79
2022/05/10 06:21:06;;;;;;;12.27;8.30;;;15.20;94.20;;;;;;5094482;28;20048;-80
2022/05/10 06:23:32;;;;;;;13.45;7.82;;;15.30;94.10;;;;;;5077544;28;20062;-80
2022/05/10 06:25:57;;;;;;;14.43;8.13;;;15.40;94.10;;;;;;5111625;28;20051;-79
2022/05/10 06:28:23;;;;;;;10.38;7.50;;;15.50;93.60;;;;;;5077722;28;20051;-79
2022/05/10 06:30:49;;;;;;;13.15;7.00;;;15.60;93.80;;;;;;5096470;28;20051;-79
2022/05/10 06:33:16;;;;;;;12.43;7.40;;;15.70;93.40;;;;;;5080808;28;20055;-79
2022/05/10 06:35:43;;;;;;;10.20;7.03;;;15.80;92.70;;;;;;5097597;28;20441;-79
2022/05/10 06:38:19;;;;;;;12.32;7.00;;;16.00;92.50;;;;;;5081076;28;20126;-79
2022/05/10 06:40:45;;;;;;;9.02;6.20;;;16.20;91.40;;;;;;5114300;28;20043;-79
2022/05/10 06:43:11;;;;;;;9.52;6.40;;;16.30;90.90;;;;;;5047359;28;20040;-79
2022/05/10 06:45:36;;;;;;;14.10;6.35;;;16.50;90.60;;;;;;5097094;28;20048;-78
2022/05/10 06:48:03;;;;;;;10.43;5.90;;;16.60;90.50;;;;;;5097905;28;20046;-93
2022/05/10 06:50:30;;;;;;;8.18;6.05;;;16.70;89.70;;;;;;5080873;28;20396;-83
2022/05/10 06:52:59;;;;;;;9.82;6.38;;;16.80;90.00;;;;;;5097532;28;20118;-79
2022/05/10 06:55:29;;;;;;;8.40;5.60;;;16.80;89.90;;;;;;5081194;28;20054;-79
2022/05/10 06:57:54;;;;;;;10.70;5.83;;;17.00;89.60;;;;;;5097446;28;20377;-79
2022/05/10 07:00:20;;;;;;;13.88;5.63;;;17.10;90.10;;;;;;5097006;28;20101;-79
2022/05/10 07:02:46;;;;;;;10.57;6.10;;;17.20;90.30;;;;;;5096882;28;20071;-79
2022/05/10 07:05:12;;;;;;;10.05;5.80;;;17.30;88.70;;;;;;5064086;28;20432;-79
2022/05/10 07:07:38;;;;;;;7.43;5.63;;;17.40;87.10;;;;;;5063637;28;20047;-78
2022/05/10 07:10:08;;;;;;;9.30;4.75;;;17.40;86.00;;;;;;5097283;28;20043;-79
2022/05/10 07:12:35;;;;;;;11.82;5.15;;;17.60;84.80;;;;;;5097503;28;20059;-79
2022/05/10 07:15:00;;;;;;;8.90;4.80;;;17.70;83.10;;;;;;5114108;28;20051;-80
2022/05/10 07:17:26;;;;;;;9.98;5.40;;;17.90;83.20;;;;;;5114143;28;20040;-79
2022/05/10 07:19:52;;;;;;;9.73;4.72;;;18.00;83.20;;;;;;5096644;28;20441;-79
2022/05/10 07:22:17;;;;;;;9.23;4.90;;;18.10;82.70;;;;;;5096716;28;20047;-78
2022/05/10 07:24:43;;;;;;;8.80;5.00;;;18.20;81.30;;;;;;5096406;28;20087;-77
2022/05/10 07:27:08;;;;;;;7.85;5.13;;;18.40;79.00;;;;;;5079599;28;20131;-79
2022/05/10 07:29:34;;;;;;;9.68;4.75;;;18.50;78.90;;;;;;5096730;28;20044;-79
2022/05/10 07:32:00;;;;;;;11.18;5.63;;;18.60;79.20;;;;;;5079354;28;20165;-79
2022/05/10 07:34:25;;;;;;;8.93;5.10;;;18.70;79.50;;;;;;5080944;27;20472;-79
2022/05/10 07:36:51;;;;;;;10.80;5.38;;;18.90;78.40;;;;;;5106565;28;20039;-80
2022/05/10 07:39:18;;;;;;;9.93;4.97;;;19.00;76.70;;;;;;5096351;28;20054;-79
2022/05/10 07:41:43;;;;;;;8.95;5.00;;;19.10;75.60;;;;;;5079053;27;20070;-79
2022/05/10 07:44:09;;;;;;;10.70;4.72;;;19.20;75.20;;;;;;5099680;27;20047;-79
2022/05/10 07:46:35;;;;;;;11.40;4.75;;;19.30;76.30;;;;;;5135044;27;20046;-79
2022/05/10 07:49:01;;;;;;;11.75;4.97;;;19.40;75.10;;;;;;5082683;27;20142;-79
2022/05/10 07:51:26;;;;;;;8.30;4.95;;;19.50;74.80;;;;;;5099630;27;20039;-78
2022/05/10 07:53:52;;;;;;;10.32;4.88;;;19.60;73.70;;;;;;5095656;28;20052;-78
2022/05/10 07:56:18;;;;;;;8.80;4.63;;;19.70;72.70;;;;;;5096253;28;20054;-79
2022/05/10 07:58:43;;;;;;;8.32;4.20;;;19.80;72.40;;;;;;5062355;28;20408;-79
2022/05/10 08:01:09;;;;;;;8.68;4.28;;;19.90;72.10;;;;;;5095844;28;20043;-79
2022/05/10 08:03:35;;;;;;;6.15;4.25;;;19.90;71.20;;;;;;5079120;28;20043;-79
2022/05/10 08:06:01;;;;;;;8.20;4.43;;;20.00;70.00;;;;;;5078535;28;20054;-79
2022/05/10 08:08:28;;;;;;;10.65;4.15;;;20.10;69.90;;;;;;5079111;28;20399;-80
2022/05/10 08:10:54;;;;;;;5.75;3.95;;;20.10;69.30;;;;;;5061945;28;20083;-79
2022/05/10 08:13:24;;;;;;;9.25;4.07;;;20.20;68.40;;;;;;5061983;28;20087;-79
2022/05/10 08:15:50;;;;;;;11.98;3.83;;;20.30;68.20;;;;;;5095543;28;20047;-80
2022/05/10 08:18:17;;;;;;;9.13;4.20;;;20.30;68.30;;;;;;5078739;28;20048;-79
2022/05/10 08:20:43;;;;;;;7.65;3.92;;;20.30;68.60;;;;;;5078631;28;20403;-82
2022/05/10 08:23:09;;;;;;;8.35;4.03;;;20.30;69.30;;;;;;5078801;28;20046;-79
2022/05/10 08:25:35;;;;;;;7.93;3.58;;;20.30;69.20;;;;;;5078941;28;20059;-79
2022/05/10 08:28:02;;;;;;;10.10;3.53;;;20.40;69.80;;;;;;5095199;28;20039;-78
2022/05/10 08:30:28;;;;;;;7.90;4.00;;;20.40;68.30;;;;;;5079096;28;20152;-79
2022/05/10 08:32:54;;;;;;;9.18;3.20;;;20.50;68.30;;;;;;5077608;28;20091;-79
2022/05/10 08:35:20;;;;;;;5.95;3.70;;;20.50;68.20;;;;;;5078811;28;20136;-79
2022/05/10 08:37:46;;;;;;;8.60;3.53;;;20.60;67.30;;;;;;5061568;28;20051;-82
2022/05/10 08:40:42;;;;;;;5.78;3.13;;;20.70;68.00;;;;;;5095460;28;20043;-78
2022/05/10 08:43:11;;;;;;;7.38;3.20;;;20.80;65.10;;;;;;5082650;28;20059;-79
2022/05/10 08:45:40;;;;;;;6.75;2.88;;;20.80;67.00;;;;;;5062179;28;20051;-78
2022/05/10 08:48:06;;;;;;;11.93;3.70;;;20.90;67.10;;;;;;5078310;28;20039;-78
2022/05/10 08:50:32;;;;;;;9.43;3.38;;;20.90;65.50;;;;;;5095139;28;20473;-77
2022/05/10 08:52:57;;;;;;;10.98;2.60;;;21.00;64.60;;;;;;5112488;28;20047;-78
2022/05/10 08:55:28;;;;;;;8.13;3.05;;;21.00;64.10;;;;;;5094561;28;20051;-77
2022/05/10 08:57:57;;;;;;;9.45;2.83;;;21.10;63.60;;;;;;5077625;28;20506;-78
2022/05/10 09:00:40;;;;;;;5.88;2.40;;;21.10;63.50;;;;;;5095028;28;20395;-77
2022/05/10 09:03:41;;;;;;;3.85;2.50;;;21.20;64.40;;;;;;5061119;28;20046;-78
2022/05/10 09:06:46;;;;;;;13.27;3.25;;;21.20;62.90;;;;;;5063561;28;20142;-78
2022/05/10 09:09:23;;;;;;;8.68;3.10;;;21.30;62.10;;;;;;5077484;28;20134;-77
2022/05/10 09:12:03;;;;;;;8.65;3.30;;;21.40;62.10;;;;;;5114343;28;20039;-78
2022/05/10 09:14:40;;;;;;;8.45;3.67;;;21.40;63.00;;;;;;5094768;28;20047;-78
2022/05/10 09:17:06;;;;;;;10.75;3.72;;;21.30;62.50;;;;;;5078465;28;20481;-78
2022/05/10 09:19:37;;;;;;;8.20;3.63;;;21.30;62.50;;;;;;5061424;28;20039;-78
2022/05/10 09:22:06;;;;;;;5.18;3.72;;;21.40;61.90;;;;;;5094709;28;20408;-79
2022/05/10 09:24:52;;;;;;;8.65;4.18;;;21.40;63.50;;;;;;5082556;28;20131;-79
2022/05/10 09:27:19;;;;;;;8.23;3.97;;;21.50;62.60;;;;;;5117277;28;20103;-78
2022/05/10 09:29:46;;;;;;;5.47;3.80;;;21.60;62.80;;;;;;5065697;28;20383;-78
2022/05/10 09:35:27;;;;;;;7.60;3.70;;;21.70;63.10;;;;;;5116570;28;20051;-78
2022/05/10 09:37:58;;;;;;;9.55;4.00;;;21.70;63.50;;;;;;5082079;28;20109;-78
2022/05/10 09:40:35;;;;;;;7.75;4.45;;;21.70;62.70;;;;;;5082475;28;20049;-78
2022/05/10 09:43:22;;;;;;;7.78;4.18;;;21.80;62.60;;;;;;5081752;28;20160;-78
2022/05/10 09:46:10;;;;;;;6.90;4.32;;;21.80;62.70;;;;;;5098914;28;20441;-78
2022/05/10 09:48:36;;;;;;;11.57;4.10;;;21.90;62.30;;;;;;5098832;28;20051;-78
2022/05/10 09:51:37;;;;;;;6.63;3.67;;;22.00;62.50;;;;;;5081222;28;20128;-80
2022/05/10 09:54:04;;;;;;;10.50;4.50;;;22.10;62.30;;;;;;5098422;28;20071;-79
2022/05/10 09:56:38;;;;;;;13.85;4.38;;;22.00;62.40;;;;;;5116797;28;20048;-78
2022/05/10 09:59:23;;;;;;;13.35;3.95;;;22.00;62.50;;;;;;5098158;28;20059;-78
2022/05/10 10:01:50;;;;;;;9.85;4.30;;;22.00;62.80;;;;;;5098380;28;20505;-78
2022/05/10 10:04:25;;;;;;;12.13;4.45;;;22.00;62.80;;;;;;5097285;28;20055;-78
2022/05/10 10:07:13;;;;;;;9.45;4.43;;;22.00;62.80;;;;;;5102294;28;20044;-79
2022/05/10 10:09:44;;;;;;;9.85;5.00;;;22.10;62.10;;;;;;5115417;27;20444;-78
2022/05/10 10:12:16;;;;;;;8.90;4.50;;;22.00;62.70;;;;;;5114000;28;20074;-78
2022/05/10 10:14:46;;;;;;;10.05;5.32;;;22.00;62.90;;;;;;5065033;28;20109;-78
2022/05/10 10:17:22;;;;;;;9.82;4.72;;;22.10;63.20;;;;;;5081083;28;20122;-78
2022/05/10 10:19:54;;;;;;;7.95;4.57;;;22.20;63.70;;;;;;5116129;28;20457;-78
2022/05/10 10:22:28;;;;;;;8.40;5.18;;;22.40;63.30;;;;;;5081399;28;20079;-78
2022/05/10 10:25:03;;;;;;;10.75;4.65;;;22.50;63.00;;;;;;5073580;27;20550;-78
2022/05/10 10:27:51;;;;;;;9.00;5.30;;;22.70;64.00;;;;;;5102623;27;20090;-78
2022/05/10 10:30:34;;;;;;;10.00;4.57;;;23.00;61.90;;;;;;5101307;27;20096;-78
2022/05/10 10:33:11;;;;;;;9.95;5.50;;;23.20;62.50;;;;;;5068276;27;20058;-78
2022/05/10 10:35:53;;;;;;;12.93;5.38;;;23.40;61.40;;;;;;5083463;28;20059;-78
2022/05/10 10:38:23;;;;;;;11.40;5.10;;;23.40;59.80;;;;;;5065342;28;20047;-79
2022/05/10 10:41:05;;;;;;;;;;;23.40;60.00;;;;;;5116254;28;20044;-78
2022/05/10 10:43:54;;;;;;;7.95;5.28;;;23.50;60.90;;;;;;5097432;28;20014;-78
2022/05/10 10:46:24;;;;;;;12.45;5.70;;;23.60;61.30;;;;;;5065942;28;20044;-78
2022/05/10 10:49:01;;;;;;;14.05;5.68;;;23.60;60.00;;;;;;5097446;28;20043;-78
2022/05/10 10:51:28;;;;;;;9.15;5.60;;;23.50;59.90;;;;;;5097084;28;20050;-78
2022/05/10 10:53:54;;;;;;;9.07;5.47;;;23.40;58.90;;;;;;5080688;28;20039;-78
2022/05/10 10:56:33;;;;;;;10.55;5.55;;;23.20;58.20;;;;;;5080093;28;20046;-78
2022/05/10 10:58:58;;;;;;;13.25;5.90;;;23.00;59.30;;;;;;5097550;28;20508;-78
2022/05/10 11:01:49;;;;;;;12.85;5.70;;;22.90;59.20;;;;;;5114781;28;20087;-79
2022/05/10 11:04:37;;;;;;;8.88;6.50;;;22.80;58.60;;;;;;5114930;28;20073;-78
2022/05/10 11:07:15;;;;;;;9.25;5.30;;;22.70;59.30;;;;;;5097399;28;20048;-79
2022/05/10 11:09:53;;;;;;;14.27;6.03;;;22.60;60.30;;;;;;5065135;28;20043;-78
2022/05/10 11:12:28;;;;;;;9.43;5.25;;;22.50;60.50;;;;;;5096930;28;20127;-78
2022/05/10 11:15:08;;;;;;;7.68;4.80;;;22.50;60.70;;;;;;5097547;28;20086;-78
2022/05/10 11:17:52;;;;;;;9.80;4.10;;;22.60;61.00;;;;;;5114748;28;20067;-79
2022/05/10 11:20:55;;;;;;;10.70;3.70;;;22.50;60.00;;;;;;5096505;28;20404;-78
2022/05/10 11:23:34;;;;;;;4.93;3.30;;;22.60;60.20;;;;;;5114369;28;20126;-78
2022/05/10 11:26:28;;;;;;;12.57;3.53;;;22.60;58.70;;;;;;5080113;28;20514;-79
2022/05/10 11:29:18;;;;;;;10.02;3.15;;;22.80;58.90;;;;;;5063405;28;20092;-78
2022/05/10 11:32:10;;;;;;;8.55;3.58;;;23.00;58.30;;;;;;5114731;28;20074;-78
2022/05/10 11:34:48;;;;;;;12.30;3.80;;;23.00;57.00;;;;;;5079413;28;20054;-78
2022/05/10 11:37:20;;;;;;;12.23;4.20;;;23.00;56.70;;;;;;5114264;28;20051;-79
2022/05/10 11:40:05;;;;;;;8.63;3.88;;;23.00;57.00;;;;;;5063725;28;20396;-78
2022/05/10 11:42:37;;;;;;;7.20;3.65;;;22.90;57.30;;;;;;5080896;28;20044;-79
2022/05/10 11:45:32;;;;;;;8.73;5.07;;;22.80;57.60;;;;;;5114646;28;20091;-79
2022/05/10 11:48:16;;;;;;;9.32;4.50;;;22.70;57.00;;;;;;5096560;28;20090;-78
2022/05/10 11:54:09;;;;;;;9.27;4.82;;;22.80;58.60;;;;;;5082328;28;20059;-78
2022/05/10 11:56:37;;;;;;;10.88;5.30;;;22.90;58.50;;;;;;5095940;28;20055;-78
2022/05/10 11:59:12;;;;;;;12.20;5.00;;;22.90;58.20;;;;;;5062929;28;20462;-78
2022/05/10 12:01:51;;;;;;;9.30;4.72;;;23.00;57.20;;;;;;5096559;28;20050;-78
2022/05/10 12:04:32;;;;;;;14.95;4.97;;;23.10;57.70;;;;;;5079093;28;20056;-82
2022/05/10 12:07:21;;;;;;;11.38;5.63;;;23.10;58.50;;;;;;5079179;28;20043;-78
2022/05/10 12:09:55;;;;;;;12.43;6.75;;;23.20;58.80;;;;;;5113876;28;20074;-78
2022/05/10 12:12:33;;;;;;;12.70;6.85;;;23.20;60.30;;;;;;5095499;28;20050;-79
2022/05/10 12:23:43;;;;;;;12.85;5.88;;;23.20;61.20;;;;;;5084104;28;20468;-79
2022/05/10 12:26:08;;;;;;;15.68;5.65;;;23.20;60.30;;;;;;5065020;28;20044;-79
2022/05/10 12:28:47;;;;;;;14.18;5.15;;;23.30;60.80;;;;;;5061962;28;20059;-78
2022/05/10 12:31:31;;;;;;;12.45;5.03;;;23.40;60.60;;;;;;5062104;28;20400;-78
2022/05/10 12:34:07;;;;;;;17.63;4.97;;;23.40;60.00;;;;;;5113655;27;20059;-78
2022/05/10 12:36:41;;;;;;;10.77;4.55;;;23.30;58.90;;;;;;5103905;27;20251;-79
2022/05/10 12:39:30;;;;;;;10.95;4.47;;;23.30;59.90;;;;;;5116073;27;20376;-79
2022/05/10 12:42:40;;;;;;;13.50;4.32;;;23.30;60.40;;;;;;5079115;28;20051;-78
2022/05/10 12:45:26;;;;;;;8.57;4.20;;;23.20;60.60;;;;;;5069990;28;20141;-79
2022/05/10 12:48:07;;;;;;;8.63;4.00;;;23.20;60.40;;;;;;5078751;28;20039;-78
2022/05/10 12:50:37;;;;;;;12.18;3.85;;;23.20;60.40;;;;;;5079886;28;20142;-78
2022/05/10 12:53:16;;;;;;;8.80;3.75;;;23.10;59.80;;;;;;5101623;28;20043;-78
2022/05/10 12:55:42;;;;;;;11.80;3.37;;;23.10;59.50;;;;;;5078148;28;20051;-78
2022/05/10 12:58:25;;;;;;;10.25;3.25;;;23.00;59.20;;;;;;5078290;28;20056;-78
2022/05/10 13:00:55;;;;;;;10.27;3.15;;;23.00;58.60;;;;;;5095062;28;20241;-78
2022/05/10 13:03:29;;;;;;;12.85;3.53;;;23.00;58.40;;;;;;5094944;28;20043;-78
2022/05/10 13:06:16;;;;;;;13.82;3.22;;;22.90;57.60;;;;;;5095129;28;20123;-78
2022/05/10 13:08:59;;;;;;;14.38;3.40;;;22.80;56.50;;;;;;5112732;28;20066;-78
2022/05/10 13:11:27;;;;;;;14.82;2.83;;;22.80;56.60;;;;;;5045786;28;20051;-77
2022/05/10 13:13:53;;;;;;;7.82;2.90;;;22.70;57.40;;;;;;5061951;28;20091;-78
2022/05/10 13:16:20;;;;;;;13.45;3.50;;;22.70;56.90;;;;;;5061616;28;20094;-78
2022/05/10 13:18:46;;;;;;;9.68;2.90;;;22.70;56.80;;;;;;5112472;28;20087;-78
2022/05/10 13:21:12;;;;;;;16.25;3.10;;;22.70;56.90;;;;;;5061609;28;20069;-79
2022/05/10 13:23:38;;;;;;;9.45;2.92;;;22.80;57.30;;;;;;5112466;28;20051;-77
2022/05/10 13:26:04;;;;;;;10.98;2.95;;;22.80;57.70;;;;;;5112957;28;20108;-78
2022/05/10 13:28:30;;;;;;;9.05;2.58;;;22.80;57.40;;;;;;5044618;28;20040;-79